Time;durP1;ratioP1;P1;durP2;ratioP2;P2;SDS_P1;SDS_P2;PMS_P1;PMS_P2;Temp;Humidity;BMP_temperature;BMP_pressure;BME280_temperature;BME280_humidity;BME280_pressure;Samples;Min_cycle;Max_cycle;Signal;HPM_P1;HPM_P2
2021/05/04 00:00:47;;;;;;;7.17;5.23;;;8.10;99.90;;;;;;5054425;28;20472;-50
2021/05/04 00:03:14;;;;;;;7.10;5.37;;;8.10;99.90;;;;;;5054234;28;20516;-50
2021/05/04 00:05:41;;;;;;;12.43;5.43;;;8.00;99.90;;;;;;5052894;28;21049;-50
2021/05/04 00:08:07;;;;;;;5.33;4.83;;;7.90;99.90;;;;;;5053715;28;20443;-50
2021/05/04 00:10:35;;;;;;;6.73;4.67;;;8.00;99.90;;;;;;5053998;28;20459;-51
2021/05/04 00:13:01;;;;;;;5.93;4.80;;;7.90;99.90;;;;;;5053506;28;20452;-50
2021/05/04 00:15:28;;;;;;;6.40;4.30;;;7.80;99.90;;;;;;5053765;28;20493;-51
2021/05/04 00:17:55;;;;;;;5.90;4.80;;;7.80;99.90;;;;;;5053560;28;20447;-50
2021/05/04 00:20:22;;;;;;;4.70;4.30;;;7.80;99.90;;;;;;5053168;28;20865;-49
2021/05/04 00:22:48;;;;;;;7.50;4.60;;;7.80;99.90;;;;;;5053564;28;20501;-49
2021/05/04 00:25:15;;;;;;;5.67;4.63;;;7.80;99.90;;;;;;5053469;28;20439;-50
2021/05/04 00:27:42;;;;;;;6.00;5.00;;;7.70;99.90;;;;;;5053402;28;20487;-50
2021/05/04 00:30:10;;;;;;;8.63;4.60;;;7.60;99.90;;;;;;5053604;28;20475;-50
2021/05/04 00:32:37;;;;;;;7.47;5.20;;;7.60;99.90;;;;;;5053343;28;20454;-50
2021/05/04 00:35:04;;;;;;;7.70;4.73;;;7.40;99.90;;;;;;5053202;28;20574;-50
2021/05/04 00:37:30;;;;;;;5.63;4.67;;;7.50;99.90;;;;;;5053012;28;20605;-50
2021/05/04 00:39:57;;;;;;;5.27;4.57;;;7.20;99.90;;;;;;5053236;28;20855;-50
2021/05/04 00:42:25;;;;;;;6.70;4.63;;;7.20;99.90;;;;;;5053325;28;20812;-50
2021/05/04 00:44:52;;;;;;;7.40;5.37;;;7.10;99.90;;;;;;5051798;28;20477;-50
2021/05/04 00:47:19;;;;;;;8.10;5.33;;;6.90;99.90;;;;;;5052300;28;20478;-50
2021/05/04 00:49:45;;;;;;;7.80;5.17;;;6.80;99.90;;;;;;5053014;28;20984;-50
2021/05/04 00:52:12;;;;;;;6.90;5.17;;;6.80;99.90;;;;;;5052985;28;20450;-50
2021/05/04 00:54:40;;;;;;;5.93;4.77;;;6.80;99.90;;;;;;5052756;28;20459;-49
2021/05/04 00:57:09;;;;;;;8.10;6.10;;;6.90;99.90;;;;;;5052860;28;20450;-50
2021/05/04 00:59:36;;;;;;;5.63;4.83;;;7.00;99.90;;;;;;5053106;28;20847;-50
2021/05/04 01:02:04;;;;;;;6.23;5.20;;;7.20;99.90;;;;;;5052785;28;20448;-50
2021/05/04 01:04:35;;;;;;;5.53;4.70;;;7.20;99.90;;;;;;5052676;28;20514;-50
2021/05/04 01:07:01;;;;;;;6.67;5.23;;;7.20;99.90;;;;;;5052469;28;20487;-50
2021/05/04 01:09:31;;;;;;;6.07;5.00;;;7.20;99.90;;;;;;5052694;28;20494;-50
2021/05/04 01:11:58;;;;;;;6.40;5.37;;;7.00;99.90;;;;;;5052644;28;20504;-50
2021/05/04 01:14:24;;;;;;;7.57;4.87;;;6.90;99.90;;;;;;5052248;28;20836;-50
2021/05/04 01:16:53;;;;;;;5.77;4.73;;;7.00;99.90;;;;;;5052061;28;20452;-50
2021/05/04 01:19:22;;;;;;;8.10;5.50;;;7.00;99.90;;;;;;5052570;28;20470;-50
2021/05/04 01:21:50;;;;;;;5.30;4.80;;;6.80;99.90;;;;;;5052838;28;20869;-50
2021/05/04 01:24:17;;;;;;;6.10;5.03;;;6.80;99.90;;;;;;5052350;28;20447;-50
2021/05/04 01:26:44;;;;;;;6.23;5.20;;;6.80;99.90;;;;;;5052345;28;20895;-50
2021/05/04 01:29:12;;;;;;;7.57;5.37;;;6.70;99.90;;;;;;5052569;28;20506;-50
2021/05/04 01:31:38;;;;;;;9.33;5.10;;;6.60;99.90;;;;;;5053065;28;20456;-50
2021/05/04 01:34:06;;;;;;;7.30;5.43;;;6.80;99.90;;;;;;5052718;28;20508;-50
2021/05/04 01:36:33;;;;;;;6.37;5.17;;;6.80;99.90;;;;;;5052072;28;20454;-50
2021/05/04 01:39:00;;;;;;;5.80;5.20;;;6.80;99.90;;;;;;5052383;28;20447;-50
2021/05/04 01:41:27;;;;;;;6.57;5.10;;;6.70;99.90;;;;;;5053308;28;20451;-49
2021/05/04 01:43:53;;;;;;;6.83;5.33;;;6.80;99.90;;;;;;5052048;28;20525;-49
2021/05/04 01:46:20;;;;;;;6.73;5.00;;;6.80;99.90;;;;;;5052189;28;20479;-50
2021/05/04 01:48:46;;;;;;;7.20;5.37;;;6.90;99.90;;;;;;5052904;28;20810;-50
2021/05/04 01:51:13;;;;;;;6.27;4.63;;;6.70;99.90;;;;;;5052593;28;20831;-50
2021/05/04 01:53:39;;;;;;;5.77;4.80;;;6.70;99.90;;;;;;5052665;28;20455;-50
2021/05/04 01:56:07;;;;;;;6.53;5.43;;;6.80;99.90;;;;;;5051563;28;20457;-50
2021/05/04 01:58:33;;;;;;;6.93;5.47;;;6.70;99.90;;;;;;5052684;28;20488;-50
2021/05/04 02:01:00;;;;;;;8.80;4.83;;;6.70;99.90;;;;;;5052320;28;20472;-50
2021/05/04 02:03:26;;;;;;;5.20;4.70;;;6.60;99.90;;;;;;5052562;28;20447;-50
2021/05/04 02:05:53;;;;;;;6.50;5.00;;;6.80;99.90;;;;;;5052768;28;20462;-50
2021/05/04 02:08:19;;;;;;;5.87;5.27;;;6.50;99.90;;;;;;5052477;28;20497;-50
2021/05/04 02:10:46;;;;;;;11.70;5.80;;;6.60;99.90;;;;;;5051523;28;20491;-49
2021/05/04 02:13:13;;;;;;;7.40;5.23;;;6.40;99.90;;;;;;5051617;28;20950;-50
2021/05/04 02:15:39;;;;;;;6.50;5.40;;;6.50;99.90;;;;;;5051759;28;20448;-49
2021/05/04 02:18:06;;;;;;;6.00;5.40;;;6.30;99.90;;;;;;5052040;28;20501;-50
2021/05/04 02:20:32;;;;;;;6.57;5.27;;;6.30;99.90;;;;;;5051944;28;20480;-50
2021/05/04 02:22:59;;;;;;;9.40;6.00;;;6.20;99.90;;;;;;5051938;28;20459;-49
2021/05/04 02:25:25;;;;;;;7.93;6.07;;;6.20;99.90;;;;;;5051486;28;20501;-49
2021/05/04 02:27:52;;;;;;;6.00;5.17;;;6.30;99.90;;;;;;5051882;28;20486;-50
2021/05/04 02:30:20;;;;;;;7.03;5.47;;;6.40;99.90;;;;;;5052054;28;20475;-50
2021/05/04 02:32:47;;;;;;;9.40;5.27;;;6.30;99.90;;;;;;5051800;28;20450;-49
2021/05/04 02:35:14;;;;;;;5.90;4.97;;;6.30;99.90;;;;;;5051292;28;20450;-50
2021/05/04 02:37:40;;;;;;;8.23;5.93;;;6.40;99.90;;;;;;5051431;28;20508;-49
2021/05/04 02:40:08;;;;;;;5.63;5.00;;;6.10;99.90;;;;;;5051598;28;20486;-49
2021/05/04 02:42:34;;;;;;;6.53;5.40;;;6.20;99.90;;;;;;5051770;28;20818;-50
2021/05/04 02:45:01;;;;;;;5.83;4.80;;;6.20;99.90;;;;;;5046713;28;20520;-49
2021/05/04 02:47:28;;;;;;;6.03;5.43;;;6.20;99.90;;;;;;5051592;28;20481;-49
2021/05/04 02:49:55;;;;;;;7.10;5.27;;;6.20;99.90;;;;;;5050997;28;20471;-49
2021/05/04 02:52:21;;;;;;;5.33;4.83;;;6.20;99.90;;;;;;5051382;28;20439;-49
2021/05/04 02:54:47;;;;;;;8.10;5.40;;;6.10;99.90;;;;;;5051266;28;20464;-50
2021/05/04 02:57:16;;;;;;;8.90;5.30;;;6.10;99.90;;;;;;5051343;28;21014;-50
2021/05/04 02:59:42;;;;;;;6.63;5.17;;;6.00;99.90;;;;;;5051344;28;20483;-50
2021/05/04 03:02:09;;;;;;;6.53;5.73;;;5.70;99.90;;;;;;5051268;28;20447;-49
2021/05/04 03:04:36;;;;;;;7.03;5.37;;;5.80;99.90;;;;;;5050262;28;20935;-50
2021/05/04 03:07:02;;;;;;;6.30;5.50;;;5.70;99.90;;;;;;5051594;28;20482;-49
2021/05/04 03:09:33;;;;;;;7.27;5.53;;;5.70;99.90;;;;;;5053555;28;21038;-49
2021/05/04 03:11:59;;;;;;;6.47;5.20;;;5.80;99.90;;;;;;5055785;28;20447;-49
2021/05/04 03:14:26;;;;;;;6.80;5.60;;;5.90;99.90;;;;;;5055298;28;20937;-50
2021/05/04 03:16:52;;;;;;;9.40;5.50;;;5.90;99.90;;;;;;5054779;28;20846;-49
2021/05/04 03:19:21;;;;;;;5.93;5.10;;;6.00;99.90;;;;;;5055537;28;20478;-49
2021/05/04 03:21:49;;;;;;;6.00;5.20;;;6.00;99.90;;;;;;5057533;23;20492;-48
2021/05/04 03:24:15;;;;;;;6.47;5.17;;;6.00;99.90;;;;;;5034838;28;20935;-48
2021/05/04 03:26:44;;;;;;;5.60;4.83;;;5.90;99.90;;;;;;5034120;28;20483;-49
2021/05/04 03:29:11;;;;;;;7.20;5.63;;;5.80;99.90;;;;;;5034996;28;20534;-49
2021/05/04 03:31:37;;;;;;;9.00;5.40;;;5.70;99.90;;;;;;5034879;28;20470;-48
2021/05/04 03:34:04;;;;;;;7.40;5.30;;;5.80;99.90;;;;;;5034688;28;20451;-49
2021/05/04 03:36:30;;;;;;;5.77;5.13;;;5.70;99.90;;;;;;5019344;28;20444;-48
2021/05/04 03:38:57;;;;;;;6.83;5.10;;;5.80;99.90;;;;;;5015170;28;20828;-49
2021/05/04 03:41:24;;;;;;;8.33;6.10;;;5.80;99.90;;;;;;5014810;28;20531;-48
2021/05/04 03:43:50;;;;;;;7.20;5.77;;;5.70;99.90;;;;;;5015127;28;20457;-47
2021/05/04 03:46:17;;;;;;;8.80;5.60;;;5.80;99.90;;;;;;5027041;28;20460;-49
2021/05/04 03:48:43;;;;;;;9.77;6.10;;;5.80;99.90;;;;;;5034380;28;20830;-48
2021/05/04 03:51:10;;;;;;;8.97;5.93;;;5.90;99.90;;;;;;5034474;28;20495;-47
2021/05/04 03:53:37;;;;;;;7.90;5.77;;;5.80;99.90;;;;;;5034531;28;20449;-49
2021/05/04 03:56:05;;;;;;;6.57;5.30;;;5.70;99.90;;;;;;5022887;28;20453;-47
2021/05/04 03:58:32;;;;;;;10.33;5.80;;;5.70;99.90;;;;;;5018309;28;20452;-48
2021/05/04 04:00:58;;;;;;;6.87;5.40;;;5.60;99.90;;;;;;5034055;28;20986;-49
2021/05/04 04:03:25;;;;;;;7.90;5.90;;;5.60;99.90;;;;;;5034138;28;20475;-48
2021/05/04 04:05:52;;;;;;;8.50;5.90;;;5.60;99.90;;;;;;5033276;28;20453;-47
2021/05/04 04:08:19;;;;;;;7.37;5.60;;;5.40;99.90;;;;;;5032018;28;20491;-48
2021/05/04 04:10:46;;;;;;;8.43;5.43;;;5.40;99.90;;;;;;5014366;28;20477;-48
2021/05/04 04:13:14;;;;;;;9.63;5.87;;;5.50;99.90;;;;;;5014283;28;20857;-48
2021/05/04 04:15:41;;;;;;;7.73;5.80;;;5.40;99.90;;;;;;5014001;28;20460;-48
2021/05/04 04:18:07;;;;;;;5.57;4.90;;;5.50;99.90;;;;;;5014051;28;20453;-48
2021/05/04 04:20:34;;;;;;;8.87;5.57;;;5.60;99.90;;;;;;5031787;28;20534;-48
2021/05/04 04:23:00;;;;;;;6.03;4.90;;;5.60;99.90;;;;;;5033925;28;20811;-49
2021/05/04 04:25:27;;;;;;;7.77;5.40;;;5.60;99.90;;;;;;5025425;28;20465;-47
2021/05/04 04:27:53;;;;;;;5.83;5.23;;;5.70;99.90;;;;;;5019951;28;20487;-48
2021/05/04 04:30:24;;;;;;;7.53;5.93;;;5.80;99.90;;;;;;5014256;28;20476;-48
2021/05/04 04:32:51;;;;;;;5.47;4.73;;;5.90;99.90;;;;;;5033606;28;20941;-48
2021/05/04 04:35:18;;;;;;;7.67;5.30;;;6.00;99.90;;;;;;5032660;28;20464;-48
2021/05/04 04:37:44;;;;;;;11.07;6.70;;;6.30;99.90;;;;;;5033569;28;20449;-49
2021/05/04 04:40:12;;;;;;;9.63;6.10;;;7.00;99.90;;;;;;5033478;28;20468;-47
2021/05/04 04:42:39;;;;;;;13.07;7.33;;;7.90;99.90;;;;;;5033549;28;20459;-49
2021/05/04 04:45:06;;;;;;;10.90;6.90;;;8.80;99.90;;;;;;5017692;28;20461;-49
2021/05/04 04:47:34;;;;;;;10.63;7.53;;;9.60;99.90;;;;;;5013696;28;20493;-47
2021/05/04 04:50:00;;;;;;;8.70;6.47;;;9.90;99.90;;;;;;5013641;28;20473;-48
2021/05/04 04:52:27;;;;;;;7.50;5.90;;;10.50;99.90;;;;;;5013382;28;20503;-48
2021/05/04 04:54:54;;;;;;;8.77;5.83;;;11.20;99.90;;;;;;5012354;28;20454;-48
2021/05/04 04:57:20;;;;;;;10.13;5.50;;;11.60;99.90;;;;;;5013236;28;20454;-49
2021/05/04 04:59:49;;;;;;;9.50;5.33;;;11.70;99.90;;;;;;5013171;28;20793;-49
2021/05/04 05:02:16;;;;;;;6.10;4.70;;;11.50;99.90;;;;;;5013188;28;20458;-48
2021/05/04 05:04:43;;;;;;;6.37;5.10;;;11.30;99.90;;;;;;5013241;28;20456;-49
2021/05/04 05:07:10;;;;;;;6.90;4.80;;;11.20;99.90;;;;;;5019448;28;20480;-49
2021/05/04 05:09:36;;;;;;;5.97;4.40;;;11.10;99.90;;;;;;5018630;28;20453;-48
2021/05/04 05:12:04;;;;;;;9.93;6.13;;;11.20;99.90;;;;;;5013165;28;20955;-48
2021/05/04 05:14:34;;;;;;;7.20;5.40;;;11.30;99.90;;;;;;5013110;28;20469;-48
2021/05/04 05:17:01;;;;;;;9.30;5.87;;;11.90;99.90;;;;;;5012956;28;20540;-49
2021/05/04 05:19:27;;;;;;;4.50;3.80;;;12.00;99.90;;;;;;5014340;28;20662;-49
2021/05/04 05:21:55;;;;;;;4.13;3.73;;;11.80;99.90;;;;;;5020749;28;20477;-50
2021/05/04 05:24:22;;;;;;;5.60;4.70;;;12.30;99.90;;;;;;5021953;28;20495;-49
2021/05/04 05:26:49;;;;;;;8.40;3.87;;;12.10;99.90;;;;;;5024096;28;20484;-50
2021/05/04 05:29:15;;;;;;;5.80;4.60;;;12.00;99.90;;;;;;5013829;28;20453;-49
2021/05/04 05:31:42;;;;;;;7.67;4.87;;;12.30;99.90;;;;;;5013106;28;20469;-49
2021/05/04 05:34:09;;;;;;;12.57;5.67;;;12.70;99.90;;;;;;5012878;28;20453;-48
2021/05/04 05:36:35;;;;;;;6.30;5.03;;;12.50;99.90;;;;;;5012902;28;20441;-49
2021/05/04 05:39:03;;;;;;;7.20;4.70;;;12.90;99.90;;;;;;5018636;28;20535;-48
2021/05/04 05:41:30;;;;;;;8.73;5.23;;;13.40;99.90;;;;;;5028975;28;20472;-48
2021/05/04 05:43:56;;;;;;;5.23;4.37;;;12.50;99.90;;;;;;5032398;28;20451;-49
2021/05/04 05:46:23;;;;;;;5.80;4.13;;;12.50;99.90;;;;;;5032068;28;20448;-49
2021/05/04 05:48:50;;;;;;;4.13;3.73;;;12.70;99.90;;;;;;5027559;28;20462;-49
2021/05/04 05:51:17;;;;;;;5.17;4.30;;;12.70;99.90;;;;;;5021013;28;20464;-49
2021/05/04 05:53:44;;;;;;;4.07;3.70;;;13.10;99.90;;;;;;5013365;28;20459;-49
2021/05/04 05:56:11;;;;;;;5.17;3.90;;;13.00;99.90;;;;;;5013350;28;20526;-48
2021/05/04 05:58:37;;;;;;;4.93;4.07;;;12.20;99.90;;;;;;5021166;28;20453;-49
2021/05/04 06:01:04;;;;;;;5.97;3.90;;;12.00;99.90;;;;;;5024054;28;20480;-49
2021/05/04 06:03:31;;;;;;;4.83;4.00;;;12.20;99.90;;;;;;5028031;28;20826;-49
2021/05/04 06:05:58;;;;;;;4.70;4.30;;;12.30;99.90;;;;;;5026464;28;20454;-49
2021/05/04 06:08:24;;;;;;;4.53;4.07;;;12.60;99.90;;;;;;5013838;28;20489;-49
2021/05/04 06:10:51;;;;;;;4.60;4.03;;;13.20;99.90;;;;;;5027736;28;20472;-49
2021/05/04 06:13:19;;;;;;;5.80;3.90;;;13.20;99.90;;;;;;5028412;28;20451;-49
2021/05/04 06:15:45;;;;;;;6.23;3.97;;;13.40;99.90;;;;;;5011889;28;20446;-48
2021/05/04 06:18:13;;;;;;;5.87;4.00;;;14.20;99.90;;;;;;5030421;28;20445;-49
2021/05/04 06:20:39;;;;;;;5.13;4.13;;;14.50;99.90;;;;;;5031622;28;20488;-49
2021/05/04 06:23:07;;;;;;;5.67;4.27;;;15.20;99.90;;;;;;5031682;28;20456;-49
2021/05/04 06:25:34;;;;;;;5.07;3.93;;;14.90;99.90;;;;;;5031668;28;20502;-49
2021/05/04 06:28:04;;;;;;;6.50;4.00;;;15.00;99.90;;;;;;5028446;28;20480;-50
2021/05/04 06:30:34;;;;;;;6.60;4.40;;;15.30;99.90;;;;;;5027626;28;21067;-50
2021/05/04 06:33:03;;;;;;;4.60;4.20;;;15.90;99.90;;;;;;5031600;28;20463;-50
2021/05/04 06:35:30;;;;;;;4.20;3.80;;;16.30;99.90;;;;;;5017227;28;20481;-50
2021/05/04 06:37:56;;;;;;;4.23;3.83;;;16.50;99.90;;;;;;5012085;28;20453;-50
2021/05/04 06:40:23;;;;;;;5.70;4.10;;;16.20;99.90;;;;;;5011671;28;20507;-49
2021/05/04 06:42:49;;;;;;;4.23;3.30;;;16.00;99.90;;;;;;5011743;28;20959;-49
2021/05/04 06:45:16;;;;;;;5.70;3.80;;;16.30;99.90;;;;;;5014986;28;20842;-50
2021/05/04 06:47:43;;;;;;;5.77;4.17;;;16.90;99.90;;;;;;5029274;28;20475;-49
2021/05/04 06:50:10;;;;;;;6.23;3.90;;;16.80;99.90;;;;;;5035589;28;20534;-50
2021/05/04 06:52:37;;;;;;;4.20;3.80;;;16.00;99.90;;;;;;5035580;28;20487;-49
2021/05/04 06:55:04;;;;;;;4.70;3.63;;;15.90;99.90;;;;;;5035456;28;20495;-49
2021/05/04 06:57:31;;;;;;;4.30;3.20;;;15.60;99.90;;;;;;5023982;28;20460;-50
2021/05/04 06:59:57;;;;;;;6.53;3.60;;;16.10;99.90;;;;;;5015611;28;21191;-49
2021/05/04 07:02:23;;;;;;;4.00;3.37;;;16.50;99.90;;;;;;5016053;28;20813;-49
2021/05/04 07:04:51;;;;;;;3.97;3.27;;;17.10;99.90;;;;;;5015235;28;20961;-49
2021/05/04 07:07:17;;;;;;;5.40;3.70;;;17.50;99.90;;;;;;5015463;28;20485;-50
2021/05/04 07:09:44;;;;;;;4.53;3.60;;;17.40;99.90;;;;;;5020080;28;20462;-49
2021/05/04 07:12:11;;;;;;;3.60;3.30;;;17.40;99.90;;;;;;5035220;28;20455;-49
2021/05/04 07:14:39;;;;;;;8.33;3.40;;;16.50;99.90;;;;;;5035009;28;20866;-49
2021/05/04 07:17:06;;;;;;;5.03;3.47;;;16.50;99.90;;;;;;5034932;28;20457;-50
2021/05/04 07:19:33;;;;;;;4.60;3.50;;;16.70;99.90;;;;;;5017892;28;20449;-49
2021/05/04 07:22:00;;;;;;;4.37;3.30;;;16.50;99.90;;;;;;5015463;28;20445;-49
2021/05/04 07:24:27;;;;;;;5.83;3.10;;;16.40;99.90;;;;;;5015148;28;20540;-51
2021/05/04 07:26:53;;;;;;;3.67;3.37;;;16.40;99.90;;;;;;5023166;28;20538;-49
2021/05/04 07:29:20;;;;;;;3.50;3.20;;;16.00;99.90;;;;;;5032108;28;20468;-49
2021/05/04 07:31:47;;;;;;;4.13;3.73;;;15.10;99.90;;;;;;5014909;28;20832;-49
2021/05/04 07:34:13;;;;;;;3.93;3.50;;;15.20;99.90;;;;;;5015145;28;20453;-49
2021/05/04 07:36:40;;;;;;;3.33;3.03;;;15.40;99.90;;;;;;5014913;28;20445;-49
2021/05/04 07:39:07;;;;;;;4.73;3.10;;;15.60;99.90;;;;;;5015005;28;20449;-49
2021/05/04 07:41:35;;;;;;;2.90;2.60;;;15.80;99.90;;;;;;5034058;28;20479;-49
2021/05/04 07:44:01;;;;;;;12.97;3.13;;;15.70;99.60;;;;;;5032993;28;20507;-49
2021/05/04 07:46:28;;;;;;;2.53;2.30;;;15.60;99.90;;;;;;5020156;28;20513;-50
2021/05/04 07:48:55;;;;;;;2.60;2.50;;;15.80;99.90;;;;;;5024167;28;20459;-49
2021/05/04 07:51:22;;;;;;;3.47;2.50;;;15.90;99.90;;;;;;5022858;28;21005;-48
2021/05/04 07:53:49;;;;;;;3.37;2.50;;;15.90;99.90;;;;;;5020523;28;20507;-50
2021/05/04 07:56:16;;;;;;;3.37;2.70;;;16.10;99.20;;;;;;5017806;28;20981;-49
2021/05/04 07:58:43;;;;;;;3.83;2.90;;;16.20;99.80;;;;;;5022558;28;20502;-52
2021/05/04 08:01:09;;;;;;;3.17;2.87;;;16.50;99.90;;;;;;5017197;28;20472;-52
2021/05/04 08:03:36;;;;;;;2.70;2.50;;;16.50;99.90;;;;;;5026577;28;20453;-51
2021/05/04 08:06:02;;;;;;;3.10;2.87;;;16.50;99.30;;;;;;5033987;28;20456;-50
2021/05/04 08:08:29;;;;;;;3.50;2.67;;;16.60;98.60;;;;;;5022934;28;20995;-52
2021/05/04 08:10:55;;;;;;;3.27;2.70;;;16.60;97.80;;;;;;5025027;28;20468;-52
2021/05/04 08:13:23;;;;;;;3.00;2.80;;;16.80;95.40;;;;;;5025747;28;20445;-52
2021/05/04 08:15:51;;;;;;;2.43;2.23;;;17.00;93.40;;;;;;5013681;28;20450;-52
2021/05/04 08:18:18;;;;;;;3.00;2.30;;;17.20;93.60;;;;;;5013978;28;20449;-50
2021/05/04 08:20:48;;;;;;;3.47;3.00;;;17.10;92.50;;;;;;5013726;28;20485;-49
2021/05/04 08:23:15;;;;;;;4.70;2.50;;;17.60;92.70;;;;;;5014540;28;20453;-49
2021/05/04 08:25:42;;;;;;;7.00;3.23;;;17.70;96.00;;;;;;5013336;28;20523;-48
2021/05/04 08:28:09;;;;;;;15.93;4.43;;;18.10;94.20;;;;;;5013584;28;20612;-50
2021/05/04 08:30:36;;;;;;;3.60;2.67;;;18.70;94.70;;;;;;5013553;28;20514;-50
2021/05/04 08:33:03;;;;;;;3.43;2.47;;;18.90;92.70;;;;;;5013772;28;20450;-50
2021/05/04 08:35:30;;;;;;;2.97;2.70;;;19.40;94.00;;;;;;5018837;28;20503;-50
2021/05/04 08:37:57;;;;;;;3.23;2.87;;;19.80;90.90;;;;;;5031364;28;20504;-50
2021/05/04 08:40:24;;;;;;;5.73;3.53;;;19.90;92.60;;;;;;5024190;28;20900;-51
2021/05/04 08:42:51;;;;;;;4.10;3.70;;;20.30;89.30;;;;;;5022415;28;20456;-50
2021/05/04 08:45:18;;;;;;;5.57;3.40;;;20.30;90.00;;;;;;5021563;28;20872;-51
2021/05/04 08:47:47;;;;;;;3.63;3.07;;;20.10;89.70;;;;;;5032949;28;20484;-50
2021/05/04 08:50:15;;;;;;;3.93;3.17;;;19.50;91.10;;;;;;5026499;28;20469;-51
2021/05/04 08:52:42;;;;;;;4.50;3.10;;;19.30;93.80;;;;;;5019434;28;20567;-50
2021/05/04 08:55:10;;;;;;;3.73;3.23;;;19.50;94.00;;;;;;5021907;28;20452;-49
2021/05/04 08:57:37;;;;;;;3.57;3.27;;;19.30;91.90;;;;;;5017192;28;20513;-49
2021/05/04 09:00:07;;;;;;;4.40;3.10;;;18.80;92.00;;;;;;5013311;28;20484;-50
2021/05/04 09:02:39;;;;;;;25.33;4.10;;;18.10;93.50;;;;;;5013479;28;20975;-50
2021/05/04 09:05:17;;;;;;;3.53;3.00;;;18.20;93.00;;;;;;5013048;28;20460;-49
2021/05/04 09:07:44;;;;;;;5.53;4.20;;;18.20;93.20;;;;;;5012028;28;20502;-50
2021/05/04 09:10:22;;;;;;;3.90;3.47;;;18.20;92.70;;;;;;5031924;28;20993;-49
2021/05/04 09:12:54;;;;;;;3.60;3.30;;;18.20;93.30;;;;;;5024692;28;20510;-49
2021/05/04 09:18:41;;;;;;;3.23;2.90;;;18.10;94.30;;;;;;5028334;28;20424;-48
2021/05/04 09:21:09;;;;;;;3.90;3.10;;;17.80;93.20;;;;;;5033354;23;20502;-53
2021/05/04 09:23:37;;;;;;;3.73;2.77;;;17.70;93.40;;;;;;4993429;28;20446;-52
2021/05/04 09:26:03;;;;;;;2.97;2.77;;;17.50;93.50;;;;;;4993399;28;20450;-52
2021/05/04 09:28:30;;;;;;;3.10;2.80;;;17.40;92.60;;;;;;4993004;28;20485;-53
2021/05/04 09:30:58;;;;;;;4.60;2.90;;;17.20;93.40;;;;;;4983826;28;20556;-53
2021/05/04 09:33:25;;;;;;;2.97;2.63;;;17.40;93.60;;;;;;4973430;28;20989;-53
2021/05/04 09:35:52;;;;;;;3.30;2.73;;;17.40;93.00;;;;;;4973902;28;20459;-53
2021/05/04 09:38:20;;;;;;;2.60;2.00;;;17.50;92.60;;;;;;4973535;28;20447;-53
2021/05/04 09:40:47;;;;;;;4.90;2.27;;;17.50;91.30;;;;;;4973348;28;20467;-53
2021/05/04 09:43:15;;;;;;;2.80;2.60;;;17.70;91.50;;;;;;4973287;28;20451;-52
2021/05/04 09:45:43;;;;;;;3.57;2.60;;;17.80;90.10;;;;;;4973461;28;20447;-52
2021/05/04 09:48:22;;;;;;;2.50;2.30;;;17.80;91.40;;;;;;4973585;28;20914;-52
2021/05/04 09:51:00;;;;;;;2.37;2.17;;;18.00;91.50;;;;;;4973232;28;20475;-53
2021/05/04 09:53:43;;;;;;;3.10;2.60;;;18.10;91.00;;;;;;4972896;28;20455;-52
2021/05/04 09:56:12;;;;;;;2.83;2.50;;;18.40;90.70;;;;;;4973174;28;20451;-54
2021/05/04 09:58:40;;;;;;;3.13;2.10;;;18.50;89.00;;;;;;4973281;28;20451;-54
2021/05/04 10:01:09;;;;;;;2.50;2.33;;;18.50;85.80;;;;;;4973106;28;20478;-53
2021/05/04 10:03:37;;;;;;;4.10;2.00;;;18.60;85.80;;;;;;4972715;28;20455;-54
2021/05/04 10:06:05;;;;;;;4.20;1.93;;;18.60;85.50;;;;;;4971298;28;20475;-53
2021/05/04 10:08:34;;;;;;;5.63;2.30;;;18.50;84.40;;;;;;4967074;28;20502;-54
2021/05/04 10:11:03;;;;;;;2.60;2.40;;;18.40;86.70;;;;;;4953723;29;20547;-54
2021/05/04 10:13:31;;;;;;;5.40;2.33;;;18.40;83.10;;;;;;4969838;28;20513;-54
2021/05/04 10:15:58;;;;;;;2.83;2.50;;;18.50;83.10;;;;;;4972541;28;20949;-54
2021/05/04 10:18:25;;;;;;;5.63;2.20;;;18.60;80.30;;;;;;4972579;28;20458;-54
2021/05/04 10:20:54;;;;;;;2.40;2.20;;;18.50;80.40;;;;;;4971981;28;20487;-54
2021/05/04 10:23:21;;;;;;;2.43;2.27;;;18.80;78.20;;;;;;4973039;28;20482;-54
2021/05/04 10:25:52;;;;;;;4.73;2.00;;;18.70;78.50;;;;;;4972277;28;20451;-54
2021/05/04 10:28:21;;;;;;;4.03;1.90;;;18.70;77.20;;;;;;4972383;28;20577;-54
2021/05/04 10:30:48;;;;;;;2.17;2.00;;;18.90;76.90;;;;;;4972497;28;20474;-54
2021/05/04 10:33:28;;;;;;;2.50;2.07;;;19.00;77.80;;;;;;4972619;28;20455;-54
2021/05/04 10:35:55;;;;;;;2.57;2.10;;;18.90;78.00;;;;;;4972134;28;20539;-54
2021/05/04 10:38:22;;;;;;;2.30;1.80;;;19.00;75.20;;;;;;4972192;28;20448;-54
2021/05/04 10:41:01;;;;;;;3.70;2.27;;;19.10;74.50;;;;;;4972581;28;20470;-54
2021/05/04 10:43:38;;;;;;;2.20;2.00;;;19.10;73.40;;;;;;4972471;28;20447;-54
2021/05/04 10:46:09;;;;;;;2.70;2.30;;;19.00;77.10;;;;;;4972372;28;20828;-55
2021/05/04 10:48:42;;;;;;;5.87;2.40;;;18.90;73.60;;;;;;4971967;28;21067;-54
2021/05/04 10:51:12;;;;;;;2.40;2.00;;;18.90;75.30;;;;;;4972349;28;20486;-54
2021/05/04 10:54:05;;;;;;;4.17;2.00;;;18.90;75.90;;;;;;4972674;28;21024;-54
2021/05/04 10:56:38;;;;;;;2.40;2.20;;;19.00;75.80;;;;;;4972252;28;20455;-54
2021/05/04 10:59:06;;;;;;;2.23;2.03;;;19.20;73.20;;;;;;4972600;28;21351;-54
2021/05/04 11:01:33;;;;;;;3.83;2.63;;;19.20;71.90;;;;;;4972496;28;21001;-54
2021/05/04 11:04:01;;;;;;;2.50;2.30;;;19.20;71.80;;;;;;4972667;28;20459;-54
2021/05/04 11:06:47;;;;;;;2.63;2.43;;;19.10;72.60;;;;;;4971912;28;20824;-54
2021/05/04 11:09:15;;;;;;;5.20;2.33;;;19.00;72.80;;;;;;4972742;28;20447;-54
2021/05/04 11:11:49;;;;;;;1.83;1.73;;;19.00;71.70;;;;;;4972294;28;20474;-53
2021/05/04 11:14:27;;;;;;;2.80;2.03;;;18.80;74.10;;;;;;4972534;28;20454;-54
2021/05/04 11:17:22;;;;;;;1.77;1.67;;;18.90;72.00;;;;;;4972307;28;20462;-54
2021/05/04 11:19:49;;;;;;;2.80;1.80;;;18.90;73.00;;;;;;4972417;28;20917;-54
2021/05/04 11:22:24;;;;;;;2.80;2.10;;;19.00;71.40;;;;;;4972408;28;20444;-53
2021/05/04 11:24:53;;;;;;;2.13;1.93;;;19.10;71.30;;;;;;4971706;28;20961;-54
2021/05/04 11:27:26;;;;;;;2.00;1.90;;;19.30;73.60;;;;;;4972294;28;20486;-54
2021/05/04 11:29:56;;;;;;;2.23;2.03;;;19.30;71.10;;;;;;4973537;28;20455;-54
2021/05/04 11:32:24;;;;;;;2.13;2.03;;;19.30;70.60;;;;;;4976171;28;20454;-54
2021/05/04 11:34:58;;;;;;;2.07;1.73;;;19.00;70.80;;;;;;4975494;28;20459;-53
2021/05/04 11:37:37;;;;;;;2.43;2.23;;;18.80;71.40;;;;;;4975821;28;20511;-54
2021/05/04 11:40:15;;;;;;;2.13;1.97;;;18.90;70.00;;;;;;4975706;28;20863;-53
2021/05/04 11:42:44;;;;;;;2.10;1.90;;;19.00;73.60;;;;;;4975999;28;20467;-53
2021/05/04 11:45:13;;;;;;;2.10;1.93;;;19.30;71.00;;;;;;4975377;28;20885;-53
2021/05/04 11:47:42;;;;;;;2.37;2.17;;;19.20;69.70;;;;;;4975685;28;20501;-53
2021/05/04 11:50:12;;;;;;;2.83;2.10;;;19.20;70.70;;;;;;4975538;28;20463;-53
2021/05/04 11:52:40;;;;;;;3.20;2.63;;;19.30;71.70;;;;;;4975825;28;20502;-54
2021/05/04 11:55:10;;;;;;;2.20;2.00;;;19.60;69.10;;;;;;4975217;28;20498;-53
2021/05/04 11:57:38;;;;;;;2.33;2.00;;;19.50;67.00;;;;;;4975275;28;20455;-53
2021/05/04 12:00:07;;;;;;;2.43;2.20;;;19.60;70.10;;;;;;4975455;28;20447;-54
2021/05/04 12:02:34;;;;;;;2.10;2.00;;;19.90;68.50;;;;;;4975390;28;20451;-53
2021/05/04 12:05:01;;;;;;;3.07;2.37;;;20.00;70.50;;;;;;4974749;28;20451;-54
2021/05/04 12:07:43;;;;;;;2.30;2.20;;;20.10;69.00;;;;;;4975223;28;20534;-53
2021/05/04 12:10:30;;;;;;;2.33;2.13;;;20.00;69.40;;;;;;4974812;28;20531;-54
2021/05/04 12:12:58;;;;;;;2.30;2.10;;;19.90;68.20;;;;;;4974103;28;20834;-53
2021/05/04 12:15:27;;;;;;;1.97;1.87;;;19.60;69.40;;;;;;4961077;28;20448;-53
2021/05/04 12:18:04;;;;;;;2.40;2.20;;;19.70;69.20;;;;;;4955841;29;20451;-53
2021/05/04 12:20:32;;;;;;;5.70;2.00;;;19.90;70.60;;;;;;4955773;29;20510;-53
2021/05/04 12:23:00;;;;;;;2.07;1.97;;;19.90;68.70;;;;;;4955718;29;20456;-53
2021/05/04 12:25:40;;;;;;;2.20;2.00;;;20.00;68.60;;;;;;4955380;29;20527;-53
2021/05/04 12:28:07;;;;;;;2.50;2.30;;;20.00;68.60;;;;;;4955732;29;20574;-53
2021/05/04 12:30:35;;;;;;;2.57;2.07;;;19.70;67.80;;;;;;4970600;28;20530;-53
2021/05/04 12:33:01;;;;;;;2.20;2.00;;;19.70;69.20;;;;;;4974973;28;20842;-53
2021/05/04 12:35:30;;;;;;;4.37;2.30;;;19.70;68.00;;;;;;4974665;28;20454;-54
2021/05/04 12:38:09;;;;;;;2.23;2.10;;;19.90;69.40;;;;;;4974521;28;20448;-54
2021/05/04 12:40:38;;;;;;;2.10;1.90;;;20.10;66.90;;;;;;4974631;28;20475;-53
2021/05/04 12:43:16;;;;;;;2.10;2.00;;;20.30;67.60;;;;;;4974505;28;20455;-53
2021/05/04 12:46:04;;;;;;;2.83;2.07;;;20.50;66.00;;;;;;4974379;28;20473;-53
2021/05/04 12:48:32;;;;;;;2.23;2.03;;;20.30;69.70;;;;;;4974657;28;20498;-54
2021/05/04 12:51:01;;;;;;;2.20;2.00;;;20.00;68.10;;;;;;4974520;28;20477;-54
2021/05/04 12:53:33;;;;;;;2.57;2.20;;;20.20;70.10;;;;;;4974199;28;20458;-54
2021/05/04 12:56:01;;;;;;;2.90;2.30;;;20.20;67.40;;;;;;4974377;28;20471;-53
2021/05/04 12:58:28;;;;;;;2.33;2.20;;;20.40;68.50;;;;;;4974404;28;20458;-54